Time;durP1;ratioP1;P1;durP2;ratioP2;P2;SDS_P1;SDS_P2;PMS_P1;PMS_P2;Temp;Humidity;BMP_temperature;BMP_pressure;BME280_temperature;BME280_humidity;BME280_pressure;Samples;Min_cycle;Max_cycle;Signal;HPM_P1;HPM_P2
2021/05/07 00:01:02;;;;;;;11.00;5.43;;;17.40;54.20;;;;;;5044939;28;20530;-59
2021/05/07 00:03:28;;;;;;;9.43;4.80;;;17.40;54.00;;;;;;5053684;28;20069;-59
2021/05/07 00:05:55;;;;;;;9.45;4.68;;;17.40;54.20;;;;;;5048137;28;20083;-59
2021/05/07 00:08:32;;;;;;;14.82;5.90;;;17.40;54.10;;;;;;5050375;28;20135;-57
2021/05/07 00:11:00;;;;;;;10.35;5.28;;;17.50;54.50;;;;;;5045052;28;20108;-60
2021/05/07 00:13:26;;;;;;;8.38;4.78;;;17.40;53.90;;;;;;5043413;28;20039;-59
2021/05/07 00:15:52;;;;;;;9.60;4.70;;;17.40;54.10;;;;;;5044734;28;20040;-59
2021/05/07 00:18:18;;;;;;;9.07;4.40;;;17.30;54.20;;;;;;5054628;28;20041;-59
2021/05/07 00:20:44;;;;;;;10.13;4.40;;;17.30;54.30;;;;;;5045432;28;20029;-58
2021/05/07 00:23:10;;;;;;;9.30;4.50;;;17.30;54.20;;;;;;5057810;28;20044;-59
2021/05/07 00:25:36;;;;;;;13.73;5.75;;;17.30;54.40;;;;;;5053967;28;20149;-58
2021/05/07 00:28:04;;;;;;;9.98;4.95;;;17.30;54.20;;;;;;5065570;28;20090;-59
2021/05/07 00:30:30;;;;;;;12.45;5.15;;;17.40;54.20;;;;;;5061980;28;20090;-58
2021/05/07 00:32:56;;;;;;;9.90;5.13;;;17.30;54.30;;;;;;5046091;28;20041;-59
2021/05/07 00:35:22;;;;;;;9.35;4.25;;;17.30;54.40;;;;;;5039134;28;20491;-59
2021/05/07 00:37:49;;;;;;;9.20;4.72;;;17.40;54.40;;;;;;5056534;28;20044;-57
2021/05/07 00:40:16;;;;;;;8.40;4.43;;;17.30;54.40;;;;;;5068992;28;20077;-59
2021/05/07 00:42:42;;;;;;;8.95;4.57;;;17.40;54.40;;;;;;5044721;28;20048;-59
2021/05/07 00:45:10;;;;;;;8.40;5.15;;;17.40;54.30;;;;;;5049977;28;20474;-60
2021/05/07 00:47:58;;;;;;;10.70;4.53;;;17.40;54.40;;;;;;5060766;28;20037;-60
2021/05/07 00:50:32;;;;;;;10.80;5.05;;;17.40;54.50;;;;;;5029617;28;20033;-59
2021/05/07 00:56:20;;;;;;;10.85;3.97;;;17.40;54.90;;;;;;5001007;28;20517;-59
2021/05/07 00:58:46;;;;;;;8.85;4.90;;;17.40;54.40;;;;;;5060411;28;20064;-59
2021/05/07 01:01:12;;;;;;;8.88;4.47;;;17.40;54.30;;;;;;5068401;28;20151;-59
2021/05/07 01:03:37;;;;;;;9.77;4.32;;;17.40;54.40;;;;;;5058522;28;20133;-59
2021/05/07 01:06:03;;;;;;;7.05;4.00;;;17.40;54.40;;;;;;5065606;28;20713;-59
2021/05/07 01:08:29;;;;;;;10.57;4.13;;;17.40;54.40;;;;;;5035879;28;20080;-59
2021/05/07 01:10:55;;;;;;;11.43;4.55;;;17.40;54.50;;;;;;5019864;28;20128;-59
2021/05/07 01:13:21;;;;;;;11.65;4.47;;;17.40;54.60;;;;;;5019153;28;20041;-59
2021/05/07 01:15:46;;;;;;;11.20;4.75;;;17.40;54.50;;;;;;5021307;28;20068;-60
2021/05/07 01:18:12;;;;;;;8.75;4.55;;;17.40;54.80;;;;;;5007012;28;20492;-59
2021/05/07 01:20:38;;;;;;;7.55;4.57;;;17.40;54.90;;;;;;5027092;28;20450;-60
2021/05/07 01:23:07;;;;;;;9.85;4.97;;;17.40;54.70;;;;;;5018135;28;20038;-60
2021/05/07 01:25:44;;;;;;;8.43;4.25;;;17.40;55.60;;;;;;5028078;28;20125;-60
2021/05/07 01:28:13;;;;;;;7.47;4.53;;;17.40;55.70;;;;;;5017074;28;20033;-60
2021/05/07 01:30:43;;;;;;;12.25;5.25;;;17.30;55.50;;;;;;5032284;28;20108;-59
2021/05/07 01:33:11;;;;;;;8.50;4.13;;;17.30;55.20;;;;;;5015558;28;20049;-60
2021/05/07 01:35:37;;;;;;;10.60;4.72;;;17.30;55.40;;;;;;5017388;28;20034;-60
2021/05/07 01:38:05;;;;;;;8.70;4.38;;;17.30;55.50;;;;;;5024977;28;20042;-60
2021/05/07 01:40:33;;;;;;;8.70;5.15;;;17.30;55.50;;;;;;5014822;28;20128;-59
2021/05/07 01:42:59;;;;;;;10.98;4.90;;;17.30;55.70;;;;;;5020358;28;20484;-60
2021/05/07 01:45:27;;;;;;;9.77;4.60;;;17.30;55.90;;;;;;5022991;28;20049;-59
2021/05/07 01:47:54;;;;;;;6.75;3.90;;;17.20;56.10;;;;;;5024578;28;20503;-60
2021/05/07 01:50:23;;;;;;;9.68;4.47;;;17.20;56.10;;;;;;5014531;28;20030;-60
2021/05/07 01:52:49;;;;;;;7.88;4.75;;;17.20;56.30;;;;;;5028921;28;20056;-60
2021/05/07 01:55:17;;;;;;;10.30;4.68;;;17.10;56.20;;;;;;5023052;28;20063;-60
2021/05/07 01:57:43;;;;;;;9.25;4.40;;;17.10;56.40;;;;;;5019573;28;20037;-59
2021/05/07 02:00:16;;;;;;;9.95;4.25;;;17.10;56.50;;;;;;5012406;28;20044;-59
2021/05/07 02:02:43;;;;;;;9.93;4.22;;;17.10;56.60;;;;;;5022490;28;20049;-60
2021/05/07 02:05:09;;;;;;;8.43;4.05;;;17.20;56.50;;;;;;5024111;28;20136;-60
2021/05/07 02:07:36;;;;;;;8.02;4.10;;;17.20;56.30;;;;;;5021794;28;20914;-60
2021/05/07 02:10:04;;;;;;;6.47;4.60;;;17.20;56.30;;;;;;5051855;28;20142;-60
2021/05/07 02:12:30;;;;;;;11.23;4.57;;;17.20;56.20;;;;;;5062488;28;20090;-60
2021/05/07 02:14:55;;;;;;;8.23;4.60;;;17.30;56.30;;;;;;5060956;28;20435;-59
2021/05/07 02:17:21;;;;;;;9.63;4.43;;;17.20;56.20;;;;;;5066424;28;20402;-59
2021/05/07 02:19:47;;;;;;;9.23;4.25;;;17.20;56.00;;;;;;5051352;28;20035;-60
2021/05/07 02:22:13;;;;;;;9.48;4.78;;;17.20;56.00;;;;;;5058294;28;20116;-60
2021/05/07 02:24:38;;;;;;;8.98;4.10;;;17.20;56.20;;;;;;5049576;28;20045;-60
2021/05/07 02:27:04;;;;;;;11.20;4.75;;;17.20;56.00;;;;;;5045022;28;20037;-59
2021/05/07 02:29:30;;;;;;;8.38;4.47;;;17.30;56.20;;;;;;5054536;28;20033;-60
2021/05/07 02:31:56;;;;;;;8.32;4.22;;;17.30;56.30;;;;;;5056405;28;20506;-60
2021/05/07 02:34:23;;;;;;;8.77;4.55;;;17.30;56.30;;;;;;5051218;28;20034;-60
2021/05/07 02:36:48;;;;;;;11.30;4.63;;;17.30;56.30;;;;;;5056232;28;20033;-60
2021/05/07 02:39:16;;;;;;;14.70;4.57;;;17.30;56.40;;;;;;5067875;28;20047;-61
2021/05/07 02:41:43;;;;;;;6.28;4.30;;;17.30;56.10;;;;;;5059851;28;20491;-58
2021/05/07 02:44:09;;;;;;;11.55;4.68;;;17.30;56.10;;;;;;5049388;28;20045;-59
2021/05/07 02:46:36;;;;;;;9.02;4.65;;;17.30;56.00;;;;;;5063204;28;20504;-58
2021/05/07 02:49:03;;;;;;;8.95;5.07;;;17.40;56.00;;;;;;5057209;28;20047;-58
2021/05/07 02:51:30;;;;;;;13.02;5.22;;;17.30;56.00;;;;;;5063166;28;20093;-58
2021/05/07 02:53:56;;;;;;;9.50;4.85;;;17.40;55.90;;;;;;5060310;28;20464;-59
2021/05/07 02:56:22;;;;;;;10.75;4.88;;;17.30;56.00;;;;;;5054967;28;20032;-59
2021/05/07 02:58:48;;;;;;;10.88;5.25;;;17.30;56.20;;;;;;5048345;28;20063;-59
2021/05/07 03:01:14;;;;;;;12.20;4.88;;;17.30;56.20;;;;;;5047574;28;20025;-59
2021/05/07 03:03:39;;;;;;;9.18;5.00;;;17.40;56.00;;;;;;5039169;28;20511;-58
2021/05/07 03:06:05;;;;;;;9.95;5.18;;;17.30;55.90;;;;;;5053271;28;20434;-59
2021/05/07 03:08:31;;;;;;;9.30;4.80;;;17.30;56.00;;;;;;5058954;28;20048;-58
2021/05/07 03:10:56;;;;;;;8.88;4.82;;;17.30;55.90;;;;;;5063662;28;20086;-58
2021/05/07 03:13:22;;;;;;;10.18;5.13;;;17.30;56.10;;;;;;5049764;28;20087;-60
2021/05/07 03:15:48;;;;;;;11.23;4.60;;;17.30;56.00;;;;;;5029966;28;20083;-59
2021/05/07 03:18:20;;;;;;;9.90;5.70;;;17.30;56.10;;;;;;5055316;28;20553;-58
2021/05/07 03:20:48;;;;;;;9.40;5.20;;;17.30;56.30;;;;;;5058018;28;20033;-59
2021/05/07 03:23:14;;;;;;;7.93;4.82;;;17.30;56.10;;;;;;5062942;28;20041;-58
2021/05/07 03:25:40;;;;;;;11.43;5.22;;;17.30;56.10;;;;;;5060239;28;20039;-59
2021/05/07 03:28:07;;;;;;;8.45;4.90;;;17.30;56.00;;;;;;5032277;28;20061;-59
2021/05/07 03:30:34;;;;;;;8.35;4.88;;;17.30;56.10;;;;;;5050131;28;20048;-57
2021/05/07 03:33:02;;;;;;;11.80;5.00;;;17.30;56.10;;;;;;5052746;28;20131;-57
2021/05/07 03:35:28;;;;;;;8.88;4.70;;;17.30;56.30;;;;;;5045585;28;20040;-59
2021/05/07 03:37:54;;;;;;;8.68;5.50;;;17.30;56.20;;;;;;5052222;28;20033;-58
2021/05/07 03:40:20;;;;;;;11.05;5.95;;;17.30;56.20;;;;;;5044764;28;20120;-57
2021/05/07 03:42:46;;;;;;;7.03;5.05;;;17.30;56.20;;;;;;5038498;28;20083;-58
2021/05/07 03:45:16;;;;;;;9.88;5.05;;;17.30;56.20;;;;;;5045887;28;20041;-58
2021/05/07 03:47:43;;;;;;;8.40;5.35;;;17.40;56.50;;;;;;5052227;28;20419;-59
2021/05/07 03:50:10;;;;;;;12.07;5.82;;;17.30;56.30;;;;;;5062747;28;20393;-59
2021/05/07 03:52:37;;;;;;;8.73;5.32;;;17.30;56.40;;;;;;5064563;28;20033;-59
2021/05/07 03:55:05;;;;;;;13.88;5.57;;;17.30;56.30;;;;;;5057750;28;20045;-59
2021/05/07 03:57:31;;;;;;;10.93;5.97;;;17.30;56.60;;;;;;5047642;28;20073;-58
2021/05/07 03:59:56;;;;;;;10.38;5.90;;;17.30;56.80;;;;;;5054129;28;20059;-59
2021/05/07 04:02:23;;;;;;;9.93;6.22;;;17.30;56.80;;;;;;5042579;28;20128;-59
2021/05/07 04:04:53;;;;;;;12.07;5.82;;;17.30;56.50;;;;;;5045335;28;20048;-59
2021/05/07 04:07:20;;;;;;;9.85;6.32;;;17.30;56.50;;;;;;5033828;28;20051;-59
2021/05/07 04:09:55;;;;;;;11.30;5.60;;;17.30;56.40;;;;;;5039620;28;20448;-58
2021/05/07 04:13:31;;;;;;;11.32;5.72;;;17.30;56.50;;;;;;5058850;28;20048;-58
2021/05/07 04:15:11;;;;;;;8.75;5.47;;;17.30;56.60;;;;;;5045770;28;20367;-58
2021/05/07 04:17:36;;;;;;;8.68;5.13;;;17.20;56.60;;;;;;5065301;28;20033;-58
2021/05/07 04:20:03;;;;;;;10.38;5.97;;;17.30;56.90;;;;;;5030320;28;20048;-59
2021/05/07 04:22:29;;;;;;;9.88;5.88;;;17.20;56.60;;;;;;5053288;28;20040;-59
2021/05/07 04:24:55;;;;;;;9.70;5.55;;;17.20;56.60;;;;;;5062042;28;20041;-59
2021/05/07 04:27:20;;;;;;;9.35;6.05;;;17.20;56.70;;;;;;5052030;28;20048;-58
2021/05/07 04:29:46;;;;;;;12.65;6.45;;;17.20;56.80;;;;;;5064820;28;20044;-58
2021/05/07 04:32:12;;;;;;;11.60;6.57;;;17.30;56.70;;;;;;5050447;28;20052;-58
2021/05/07 04:34:37;;;;;;;8.13;5.93;;;17.20;56.60;;;;;;5065411;28;20399;-59
2021/05/07 04:37:03;;;;;;;12.10;6.05;;;17.20;56.70;;;;;;5039228;28;20048;-59
2021/05/07 04:39:29;;;;;;;12.45;5.45;;;17.20;56.60;;;;;;5051864;28;20040;-58
2021/05/07 04:41:54;;;;;;;9.23;6.22;;;17.20;56.60;;;;;;5054980;28;20040;-58
2021/05/07 04:44:20;;;;;;;10.50;6.20;;;17.20;56.60;;;;;;5059986;28;20609;-59
2021/05/07 04:46:46;;;;;;;11.52;7.10;;;17.20;56.50;;;;;;5044654;28;20525;-59
2021/05/07 04:49:11;;;;;;;12.25;6.78;;;17.20;56.50;;;;;;5047278;28;20507;-59
2021/05/07 04:51:37;;;;;;;10.30;6.97;;;17.20;56.50;;;;;;5045026;28;20124;-59
2021/05/07 04:54:04;;;;;;;11.88;7.00;;;17.20;56.70;;;;;;5064013;28;21703;-59
2021/05/07 04:56:30;;;;;;;12.05;6.22;;;17.20;56.40;;;;;;5054516;28;20045;-59
2021/05/07 04:58:55;;;;;;;13.27;7.00;;;17.30;56.30;;;;;;5057764;28;20490;-59
2021/05/07 05:01:21;;;;;;;12.95;7.00;;;17.20;56.20;;;;;;5049878;28;20067;-59
2021/05/07 05:03:47;;;;;;;13.02;6.82;;;17.20;56.20;;;;;;5063064;28;20044;-59
2021/05/07 05:06:14;;;;;;;13.30;6.70;;;17.10;56.30;;;;;;5069282;28;20040;-59
2021/05/07 05:08:39;;;;;;;10.35;6.70;;;17.10;56.40;;;;;;5049067;28;20059;-59
2021/05/07 05:11:05;;;;;;;9.35;6.55;;;17.20;56.30;;;;;;5057318;28;20416;-59
2021/05/07 05:13:30;;;;;;;12.50;7.63;;;17.20;56.20;;;;;;5049853;28;20406;-59
2021/05/07 05:15:56;;;;;;;11.63;7.47;;;17.30;56.20;;;;;;5033789;28;20034;-59
2021/05/07 05:18:36;;;;;;;11.75;7.65;;;17.20;56.20;;;;;;5035953;28;20037;-59
2021/05/07 05:21:07;;;;;;;11.20;6.95;;;17.30;56.20;;;;;;5055505;28;20048;-57
2021/05/07 05:23:33;;;;;;;10.45;6.55;;;17.30;55.70;;;;;;5051329;28;20080;-58
2021/05/07 05:26:00;;;;;;;13.00;7.35;;;17.30;55.80;;;;;;5055961;28;20135;-59
2021/05/07 05:28:27;;;;;;;15.15;7.05;;;17.30;55.70;;;;;;5054807;28;20488;-60
2021/05/07 05:30:53;;;;;;;10.27;6.95;;;17.40;55.90;;;;;;5066006;28;20045;-60
2021/05/07 05:33:19;;;;;;;13.05;7.20;;;17.30;55.70;;;;;;5063396;28;20047;-60
2021/05/07 05:35:45;;;;;;;9.88;6.90;;;17.40;55.50;;;;;;5052752;28;20442;-61
2021/05/07 05:38:13;;;;;;;10.80;7.20;;;17.40;55.50;;;;;;5044516;28;20099;-60
2021/05/07 05:40:39;;;;;;;9.60;6.97;;;17.40;55.60;;;;;;5059004;28;20039;-59
2021/05/07 05:43:04;;;;;;;13.80;6.85;;;17.30;55.30;;;;;;5061399;28;20045;-59
2021/05/07 05:45:30;;;;;;;15.48;7.72;;;17.40;55.30;;;;;;5049848;28;20136;-59
2021/05/07 05:48:07;;;;;;;9.60;7.55;;;17.50;55.30;;;;;;5050350;28;20044;-60
2021/05/07 05:50:34;;;;;;;11.65;6.97;;;17.50;55.80;;;;;;5062534;28;20524;-60
2021/05/07 05:53:00;;;;;;;10.85;7.60;;;17.40;55.10;;;;;;5042668;28;20521;-60
2021/05/07 05:55:26;;;;;;;9.95;7.90;;;17.50;55.20;;;;;;5048929;28;20036;-60
2021/05/07 05:57:52;;;;;;;13.52;7.65;;;17.60;55.30;;;;;;5047307;28;20045;-60
2021/05/07 06:00:19;;;;;;;11.32;7.57;;;17.60;55.50;;;;;;5053012;28;20028;-59
2021/05/07 06:02:45;;;;;;;13.13;8.13;;;17.60;55.10;;;;;;5068301;28;20037;-60
2021/05/07 06:05:12;;;;;;;13.88;7.95;;;17.70;55.20;;;;;;5033260;28;20045;-60
2021/05/07 06:07:38;;;;;;;11.70;7.53;;;17.60;55.10;;;;;;5063229;28;20067;-60
2021/05/07 06:10:05;;;;;;;16.63;7.90;;;17.70;55.40;;;;;;5029630;28;20040;-60
2021/05/07 06:12:31;;;;;;;14.82;7.20;;;17.70;55.60;;;;;;5063204;28;20494;-60
2021/05/07 06:14:57;;;;;;;15.80;8.40;;;17.60;55.30;;;;;;5057868;28;20044;-60
2021/05/07 06:17:22;;;;;;;9.75;7.53;;;17.70;55.60;;;;;;5037155;28;20033;-59
2021/05/07 06:19:48;;;;;;;9.80;6.82;;;17.70;55.40;;;;;;5046502;28;20060;-59
2021/05/07 06:22:14;;;;;;;18.33;7.60;;;17.70;55.70;;;;;;5059310;28;20078;-58
2021/05/07 06:24:39;;;;;;;11.85;7.65;;;17.80;55.90;;;;;;5064450;28;20135;-58
2021/05/07 06:27:05;;;;;;;14.38;7.78;;;17.80;56.00;;;;;;5057220;28;20127;-59
2021/05/07 06:29:31;;;;;;;13.50;7.45;;;17.70;56.40;;;;;;5033800;28;20101;-59
2021/05/07 06:31:57;;;;;;;13.38;8.18;;;17.80;56.60;;;;;;5055055;28;20691;-59
2021/05/07 06:34:23;;;;;;;14.23;7.90;;;17.80;57.00;;;;;;5053095;28;20045;-59
2021/05/07 06:36:49;;;;;;;15.10;8.00;;;17.70;57.20;;;;;;5042194;28;20478;-59
2021/05/07 06:39:15;;;;;;;13.10;8.32;;;17.80;57.60;;;;;;5053667;28;20029;-57
2021/05/07 06:41:41;;;;;;;12.48;8.65;;;17.80;57.40;;;;;;5057253;28;20032;-57
2021/05/07 06:44:07;;;;;;;15.50;8.40;;;17.80;57.50;;;;;;5064615;28;20051;-58
2021/05/07 06:46:33;;;;;;;14.75;9.23;;;17.90;57.60;;;;;;5062688;28;20494;-58
2021/05/07 06:48:59;;;;;;;12.90;9.95;;;18.00;57.60;;;;;;5044838;28;20078;-58
2021/05/07 06:51:27;;;;;;;12.77;9.65;;;18.00;57.70;;;;;;5042387;28;20097;-59
2021/05/07 06:53:52;;;;;;;16.65;10.77;;;18.10;57.80;;;;;;5066447;28;20058;-59
2021/05/07 06:56:21;;;;;;;16.02;9.88;;;18.00;58.20;;;;;;5051169;28;20040;-58
2021/05/07 06:58:50;;;;;;;17.85;10.52;;;18.20;58.10;;;;;;5046921;28;20048;-57
2021/05/07 07:01:16;;;;;;;15.15;11.00;;;18.20;58.10;;;;;;5050777;28;20044;-58
2021/05/07 07:03:42;;;;;;;12.95;10.82;;;18.30;58.10;;;;;;5053375;28;20041;-58
2021/05/07 07:06:09;;;;;;;10.77;8.93;;;18.40;58.20;;;;;;5046286;28;20041;-58
2021/05/07 07:08:34;;;;;;;12.95;9.27;;;18.40;58.20;;;;;;5062769;28;20105;-59
2021/05/07 07:11:00;;;;;;;12.80;10.07;;;18.50;58.20;;;;;;5050726;28;20430;-58
2021/05/07 07:13:28;;;;;;;13.13;8.77;;;18.50;58.00;;;;;;5045882;28;20475;-58
2021/05/07 07:15:54;;;;;;;15.15;8.40;;;18.40;58.20;;;;;;5043046;28;20045;-58
2021/05/07 07:18:20;;;;;;;16.00;7.72;;;18.40;58.20;;;;;;5045982;28;20436;-58
2021/05/07 07:20:47;;;;;;;15.45;8.45;;;18.20;58.50;;;;;;5057400;28;20039;-57
2021/05/07 07:23:12;;;;;;;11.52;7.40;;;18.20;58.80;;;;;;5062453;28;20036;-59
2021/05/07 07:25:38;;;;;;;11.88;6.47;;;18.30;58.70;;;;;;5047997;28;20051;-58
2021/05/07 07:28:05;;;;;;;10.98;7.43;;;18.30;58.70;;;;;;5061324;28;20516;-58
2021/05/07 07:30:31;;;;;;;9.48;5.80;;;18.30;58.30;;;;;;5066248;28;20029;-60
2021/05/07 07:32:56;;;;;;;13.70;6.35;;;18.20;58.50;;;;;;5062382;28;20044;-59
2021/05/07 07:35:22;;;;;;;12.82;5.70;;;18.20;58.20;;;;;;5053386;28;20086;-60
2021/05/07 07:37:48;;;;;;;9.23;6.03;;;18.30;58.30;;;;;;5047940;28;20437;-59
2021/05/07 07:40:14;;;;;;;13.18;6.50;;;18.40;58.40;;;;;;5055135;28;20556;-59
2021/05/07 07:42:40;;;;;;;11.00;6.15;;;18.40;58.20;;;;;;5052299;28;20075;-59
2021/05/07 07:45:10;;;;;;;12.35;6.13;;;18.40;58.30;;;;;;5030780;28;20434;-59
2021/05/07 07:47:36;;;;;;;12.43;4.45;;;18.50;58.00;;;;;;5043951;28;20127;-58
2021/05/07 07:50:05;;;;;;;6.80;3.53;;;18.50;57.60;;;;;;5046392;28;20514;-59
2021/05/07 07:52:35;;;;;;;13.68;3.88;;;18.50;57.20;;;;;;5054576;28;20033;-58
2021/05/07 07:55:01;;;;;;;13.15;4.38;;;18.60;57.20;;;;;;5050731;28;20086;-57
2021/05/07 07:57:27;;;;;;;17.42;5.13;;;18.60;57.00;;;;;;5057833;28;20067;-59
2021/05/07 07:59:53;;;;;;;16.10;5.15;;;18.60;56.90;;;;;;5057012;28;20101;-58
2021/05/07 08:02:19;;;;;;;11.20;4.93;;;18.50;57.10;;;;;;5053125;28;20047;-58
2021/05/07 08:04:45;;;;;;;10.95;4.07;;;18.60;57.20;;;;;;5062793;28;20044;-59
2021/05/07 08:07:15;;;;;;;10.00;4.07;;;18.70;57.10;;;;;;5050038;28;20049;-58
2021/05/07 08:09:40;;;;;;;13.98;4.50;;;18.80;56.90;;;;;;5063799;28;20109;-59
2021/05/07 08:12:07;;;;;;;9.82;4.18;;;19.00;56.30;;;;;;5069646;28;20040;-58
2021/05/07 08:14:32;;;;;;;10.70;3.85;;;19.10;56.00;;;;;;5052742;28;20478;-59
2021/05/07 08:16:58;;;;;;;10.20;4.05;;;19.10;55.50;;;;;;5058012;28;20037;-59
2021/05/07 08:19:24;;;;;;;15.10;4.80;;;19.10;55.70;;;;;;5049736;28;20072;-59
2021/05/07 08:21:51;;;;;;;12.32;4.40;;;19.10;55.60;;;;;;5045787;28;20529;-59
2021/05/07 08:24:16;;;;;;;8.82;4.13;;;19.30;55.30;;;;;;5054627;28;20052;-59
2021/05/07 08:26:42;;;;;;;8.73;3.65;;;19.40;54.80;;;;;;5056607;28;20497;-58
2021/05/07 08:29:08;;;;;;;8.30;4.10;;;19.30;55.10;;;;;;5060857;28;20033;-58
2021/05/07 08:31:33;;;;;;;10.35;3.50;;;19.40;55.30;;;;;;5053190;28;20044;-59
2021/05/07 08:33:59;;;;;;;9.95;3.92;;;19.50;54.70;;;;;;5063941;28;20131;-59
2021/05/07 08:36:25;;;;;;;10.32;3.22;;;19.70;54.50;;;;;;5034946;28;20116;-58
2021/05/07 08:38:51;;;;;;;8.05;3.75;;;19.70;54.00;;;;;;5069176;28;20474;-58
2021/05/07 08:41:17;;;;;;;10.45;3.92;;;19.50;54.10;;;;;;5063411;28;20141;-58
2021/05/07 08:43:44;;;;;;;8.68;3.45;;;19.60;54.00;;;;;;5043979;28;20489;-57
2021/05/07 08:46:10;;;;;;;12.85;3.75;;;19.60;53.70;;;;;;5048302;28;20059;-59
2021/05/07 08:48:38;;;;;;;10.52;3.38;;;19.60;53.40;;;;;;5064312;28;20071;-59
2021/05/07 08:51:05;;;;;;;11.07;4.07;;;19.70;53.50;;;;;;5049307;28;20057;-59
2021/05/07 08:53:31;;;;;;;14.38;4.95;;;19.90;53.50;;;;;;5029703;28;20029;-59
2021/05/07 08:56:00;;;;;;;12.25;3.97;;;19.90;53.00;;;;;;5047047;28;20148;-58
2021/05/07 08:58:26;;;;;;;9.32;3.80;;;20.10;52.90;;;;;;5067436;28;20555;-58
2021/05/07 09:00:52;;;;;;;9.65;4.20;;;20.00;52.80;;;;;;5065108;28;20045;-60
2021/05/07 09:03:19;;;;;;;11.95;3.97;;;20.10;53.00;;;;;;5068039;28;20067;-59
2021/05/07 09:05:47;;;;;;;11.52;4.30;;;20.20;53.40;;;;;;5046620;28;20036;-59
2021/05/07 09:08:12;;;;;;;12.43;4.32;;;20.10;53.10;;;;;;5032249;28;20044;-58
2021/05/07 09:10:41;;;;;;;9.30;3.00;;;20.00;53.00;;;;;;5053844;28;20036;-58
2021/05/07 09:13:09;;;;;;;10.90;4.38;;;20.10;53.20;;;;;;5049764;28;20128;-58
2021/05/07 09:15:43;;;;;;;17.30;4.43;;;20.10;53.10;;;;;;5057450;28;20064;-58
2021/05/07 09:18:10;;;;;;;;;;;20.00;52.50;;;;;;5051304;28;20063;-59
2021/05/07 09:20:39;;;;;;;11.98;4.43;;;19.90;52.90;;;;;;5048761;28;19920;-58
2021/05/07 09:23:11;;;;;;;10.10;4.35;;;20.00;52.80;;;;;;5062218;28;22321;-58
2021/05/07 09:25:37;;;;;;;11.43;4.65;;;20.10;52.90;;;;;;5059925;28;20044;-58
2021/05/07 09:28:13;;;;;;;12.30;4.70;;;20.10;53.00;;;;;;5031197;28;20132;-59
2021/05/07 09:30:39;;;;;;;12.35;4.63;;;20.20;52.70;;;;;;5046593;28;20408;-59
2021/05/07 09:33:07;;;;;;;17.35;5.45;;;20.30;52.70;;;;;;5063565;28;20032;-59
2021/05/07 09:35:33;;;;;;;13.32;5.40;;;20.40;52.40;;;;;;5067207;28;20494;-60
2021/05/07 09:38:18;;;;;;;8.80;5.00;;;20.40;52.10;;;;;;5044372;28;20041;-58
2021/05/07 09:40:44;;;;;;;13.55;4.95;;;20.40;52.10;;;;;;5048939;28;20040;-59
2021/05/07 09:43:12;;;;;;;12.82;4.63;;;20.50;52.00;;;;;;5065003;28;20063;-59
2021/05/07 09:45:40;;;;;;;16.30;5.05;;;20.60;51.70;;;;;;5060359;28;20040;-59
2021/05/07 09:48:26;;;;;;;10.02;4.53;;;20.40;51.50;;;;;;5067424;28;20052;-57
2021/05/07 09:51:02;;;;;;;8.55;4.55;;;20.50;51.50;;;;;;5010323;28;20033;-59
2021/05/07 09:53:36;;;;;;;14.20;5.82;;;20.50;51.90;;;;;;5059345;28;20032;-59
2021/05/07 09:56:16;;;;;;;10.68;5.05;;;20.50;51.40;;;;;;5056401;28;20177;-59
2021/05/07 09:58:42;;;;;;;11.88;5.50;;;20.60;51.40;;;;;;5066616;28;20044;-59
2021/05/07 10:01:09;;;;;;;11.55;4.97;;;20.50;51.20;;;;;;5059593;28;20173;-59
2021/05/07 10:03:36;;;;;;;11.77;5.60;;;20.60;51.00;;;;;;5037369;28;20048;-59
2021/05/07 10:06:02;;;;;;;13.55;5.65;;;20.70;51.40;;;;;;5055832;28;20064;-57
2021/05/07 10:08:29;;;;;;;8.40;4.60;;;20.80;50.90;;;;;;5036760;28;20399;-59
2021/05/07 10:10:59;;;;;;;15.07;5.03;;;20.80;50.90;;;;;;5052051;28;20071;-59
2021/05/07 10:14:04;;;;;;;11.20;5.55;;;20.90;50.90;;;;;;5056255;28;20037;-59
2021/05/07 10:16:30;;;;;;;14.13;5.80;;;21.10;50.00;;;;;;5000257;28;20059;-59
2021/05/07 10:19:01;;;;;;;12.07;5.95;;;21.10;49.60;;;;;;5048998;28;20052;-58
2021/05/07 10:21:36;;;;;;;12.07;5.80;;;21.10;49.40;;;;;;5067467;28;20052;-60
2021/05/07 10:24:02;;;;;;;12.65;6.28;;;21.20;49.30;;;;;;5063663;28;20041;-60
2021/05/07 10:26:36;;;;;;;11.68;5.72;;;21.20;49.40;;;;;;5064809;28;20070;-58
2021/05/07 10:29:13;;;;;;;10.55;5.72;;;21.30;48.60;;;;;;5066016;28;20087;-59
2021/05/07 10:31:45;;;;;;;11.75;5.93;;;21.40;48.80;;;;;;5067612;28;20041;-58
2021/05/07 10:34:11;;;;;;;11.32;5.28;;;21.50;47.70;;;;;;5065120;28;20086;-59
2021/05/07 10:36:42;;;;;;;14.73;6.25;;;21.50;47.40;;;;;;5061377;28;20096;-57
2021/05/07 10:39:16;;;;;;;14.50;5.65;;;21.60;47.90;;;;;;5046193;28;20044;-59
2021/05/07 10:41:43;;;;;;;12.82;6.10;;;21.50;47.00;;;;;;5030868;28;20033;-59
2021/05/07 10:44:09;;;;;;;12.85;5.65;;;21.60;47.70;;;;;;5056382;28;20052;-59
2021/05/07 10:46:35;;;;;;;11.27;5.28;;;21.70;47.50;;;;;;5032247;28;20131;-59
2021/05/07 10:49:01;;;;;;;8.77;5.70;;;21.80;47.50;;;;;;5054655;28;20048;-59
2021/05/07 10:51:27;;;;;;;13.68;5.95;;;22.00;46.60;;;;;;5047724;28;20040;-57
2021/05/07 10:54:10;;;;;;;12.50;6.18;;;22.00;46.30;;;;;;5052250;28;20029;-59
2021/05/07 10:56:40;;;;;;;13.88;6.50;;;22.10;46.30;;;;;;5051662;28;20044;-59
2021/05/07 10:59:16;;;;;;;10.23;5.28;;;21.80;45.50;;;;;;5041437;28;20049;-59
2021/05/07 11:01:55;;;;;;;15.32;5.72;;;22.20;46.40;;;;;;5057328;28;20456;-59
2021/05/07 11:04:20;;;;;;;12.55;6.20;;;22.20;45.40;;;;;;5045339;28;20127;-59
2021/05/07 11:06:46;;;;;;;12.57;6.50;;;22.20;45.70;;;;;;5046850;28;20140;-58
2021/05/07 11:09:16;;;;;;;11.52;6.40;;;22.30;45.30;;;;;;5054602;28;20410;-59
2021/05/07 11:11:42;;;;;;;13.35;6.60;;;22.60;45.60;;;;;;5058709;28;20108;-58
2021/05/07 11:14:12;;;;;;;7.65;6.03;;;23.00;44.20;;;;;;5046788;28;20041;-59
2021/05/07 11:16:40;;;;;;;14.00;6.90;;;26.50;37.20;;;;;;5055059;28;27625;-58
2021/05/07 11:19:06;;;;;;;13.70;6.63;;;28.00;33.60;;;;;;5035479;28;20063;-59
2021/05/07 11:21:32;;;;;;;12.38;6.90;;;29.50;33.50;;;;;;5046229;28;20556;-59
2021/05/07 11:23:59;;;;;;;14.57;6.50;;;30.50;29.20;;;;;;5066188;28;20491;-59
2021/05/07 11:26:35;;;;;;;11.27;6.53;;;30.90;29.10;;;;;;5062737;28;20056;-60
2021/05/07 11:29:01;;;;;;;12.30;6.47;;;31.50;28.30;;;;;;5030565;28;20064;-60
2021/05/07 11:31:27;;;;;;;9.90;6.57;;;30.70;28.20;;;;;;5041795;28;20060;-59
2021/05/07 11:33:53;;;;;;;10.35;6.95;;;29.50;29.30;;;;;;5055474;28;20086;-59
2021/05/07 11:36:19;;;;;;;10.50;6.22;;;28.90;30.80;;;;;;5069657;28;20042;-58
2021/05/07 11:38:45;;;;;;;8.65;5.28;;;28.60;32.60;;;;;;5051095;28;20037;-59
2021/05/07 11:41:23;;;;;;;8.65;5.25;;;28.40;32.70;;;;;;5045860;28;20529;-59
2021/05/07 11:43:51;;;;;;;10.80;4.80;;;27.90;32.30;;;;;;5051989;28;20386;-58
2021/05/07 11:46:17;;;;;;;7.40;4.50;;;27.50;33.00;;;;;;5052642;28;20477;-59
2021/05/07 11:48:52;;;;;;;10.27;5.90;;;27.30;32.90;;;;;;5049785;28;20037;-59
2021/05/07 11:51:18;;;;;;;12.90;5.95;;;27.00;31.70;;;;;;5060188;28;20505;-59
2021/05/07 11:53:44;;;;;;;9.90;6.15;;;26.90;33.30;;;;;;5048812;28;20031;-59
2021/05/07 11:56:24;;;;;;;8.80;5.57;;;26.60;33.70;;;;;;5060013;28;20037;-59
2021/05/07 11:58:52;;;;;;;10.48;5.35;;;26.40;33.60;;;;;;5046369;28;20087;-59
2021/05/07 12:01:19;;;;;;;9.57;4.75;;;26.30;33.60;;;;;;5071087;28;20044;-59
2021/05/07 12:03:47;;;;;;;9.05;4.28;;;26.40;31.90;;;;;;5056994;28;20068;-59
2021/05/07 12:06:20;;;;;;;5.57;3.90;;;27.80;30.00;;;;;;5061920;28;20041;-59
2021/05/07 12:08:47;;;;;;;12.05;4.90;;;29.90;27.20;;;;;;5062253;28;20498;-59
2021/05/07 12:11:15;;;;;;;11.40;5.28;;;30.80;27.90;;;;;;5044543;28;20036;-59
2021/05/07 12:13:41;;;;;;;8.55;5.07;;;29.70;28.40;;;;;;5053026;28;20421;-59
2021/05/07 12:16:07;;;;;;;9.88;4.53;;;28.50;29.70;;;;;;5052158;28;20116;-59
2021/05/07 12:18:35;;;;;;;7.63;4.35;;;28.30;29.20;;;;;;5045672;28;20041;-59
2021/05/07 12:21:04;;;;;;;8.70;4.55;;;28.60;28.90;;;;;;5041813;28;20047;-59
2021/05/07 12:23:47;;;;;;;7.85;4.45;;;28.80;29.00;;;;;;5058077;28;20513;-59
2021/05/07 12:26:14;;;;;;;7.43;3.22;;;28.90;28.60;;;;;;5055416;28;20388;-59
2021/05/07 12:28:40;;;;;;;6.18;3.13;;;28.80;28.40;;;;;;5053987;28;20048;-59
2021/05/07 12:31:08;;;;;;;7.25;3.33;;;29.00;27.70;;;;;;5050594;28;20550;-59
2021/05/07 12:33:36;;;;;;;6.75;3.58;;;29.10;27.40;;;;;;5048937;28;20033;-59
2021/05/07 12:36:03;;;;;;;7.53;3.22;;;29.40;26.90;;;;;;5049466;28;20155;-58
2021/05/07 12:38:35;;;;;;;6.57;4.13;;;30.40;26.80;;;;;;5048372;28;20040;-59
2021/05/07 12:41:16;;;;;;;6.55;3.72;;;30.40;26.00;;;;;;5035013;28;20099;-59
2021/05/07 12:43:46;;;;;;;5.60;2.55;;;29.90;26.40;;;;;;5053122;28;20025;-60
2021/05/07 12:46:14;;;;;;;7.25;3.08;;;29.40;26.70;;;;;;5047466;28;20498;-59